Pagrindinis puslapis
METAR-TAF:

METAR-TAF

Oro uostai :

Kish Island, Iranas

platuma: 26-31-36N, ilguma: 053-58-54E, Aukštis: 30 m

Dabartinis oras

Ataskaita buvo paskelbta 42 minutes, ne 13:00 UTC
Vėjas 4 kt iš Vakarų/Šiaurės Vakarų
Temperatūra 24°C
Drėgmė 69%
Slėgis 1013 hPa
Matomumas: 8000 m

METAR: OIBK 211300Z 30004KT 8000 NSC 24/18 Q1013 NOSIG

Laikas: 17:12 (13:42 UTC)

Prognozė

Ataskaita buvo paskelbta 2 valandos ir 22 minutes, ne 11:20 UTC
Prognozė galioja nuo 21 metu 12 UTC su 22 metu 18 UTC
Vėjas 8 kt iš Vakarų/Šiaurės Vakarų
Matomumas: 8000 m
Laikinai
nuo 21 metu 22 UTC su 22 metu 04 UTC
Matomumas: 4000 m
Laikinai
nuo 22 metu 06 UTC su 22 metu 12 UTC
Vėjas 12 kt iš Rytų

TAF: OIBK 211120Z 2112/2218 30008KT 8000 NSC TEMPO 2122/2204 4000 HZ/BR TEMPO 2206/2212 09012KT

Orai ataskaitas ir orų prognozės (METAR, TAF).

turimą stotys yra geltonos ir raudonos taškus žemėlapyje.

Perkelti pele per norėdami pamatyti stoties vardą.

Tada spustelėkite, norėdami matyti oro stebėjimo ir prognozės.

Norėdami pakeisti žemėlapį: spustelėkite ant žalios mygtukų su juodo kryžiaus žemyn,; žalią mygtuką su brūkšneliu, jei norite nutolinti; arba žalių rodyklių gretimoms žemėlapius.


METAR-TAF: